sensor_id;sensor_type;location;lat;lon;timestamp;pressure;altitude;pressure_sealevel;temperature;humidity
44144;BME280;68165;51.920;4.492;2023-04-28T00:00:43;67073.22;;;10.97;60.34
44144;BME280;68165;51.920;4.492;2023-04-28T00:03:09;67072.91;;;10.92;60.36
44144;BME280;68165;51.920;4.492;2023-04-28T00:05:34;67069.88;;;10.94;60.91
44144;BME280;68165;51.920;4.492;2023-04-28T00:08:00;67068.78;;;10.93;60.82
44144;BME280;68165;51.920;4.492;2023-04-28T00:10:25;67074.19;;;10.96;60.65
44144;BME280;68165;51.920;4.492;2023-04-28T00:12:50;67104.13;;;11.21;59.81
44144;BME280;68165;51.920;4.492;2023-04-28T00:15:16;67114.75;;;11.30;59.67
44144;BME280;68165;51.920;4.492;2023-04-28T00:17:41;67118.28;;;11.36;59.52
44144;BME280;68165;51.920;4.492;2023-04-28T00:20:07;67131.09;;;11.48;58.32
44144;BME280;68165;51.920;4.492;2023-04-28T00:22:33;67148.81;;;11.61;58.18
44144;BME280;68165;51.920;4.492;2023-04-28T00:24:58;67136.69;;;11.53;57.65
44144;BME280;68165;51.920;4.492;2023-04-28T00:27:24;67157.34;;;11.71;57.38
44144;BME280;68165;51.920;4.492;2023-04-28T00:29:49;67162.25;;;11.73;57.33
44144;BME280;68165;51.920;4.492;2023-04-28T00:32:14;67173.78;;;11.81;56.94
44144;BME280;68165;51.920;4.492;2023-04-28T00:34:40;67163.13;;;11.79;56.71
44144;BME280;68165;51.920;4.492;2023-04-28T00:37:05;67166.13;;;11.77;57.74
44144;BME280;68165;51.920;4.492;2023-04-28T00:39:30;67145.78;;;11.63;57.99
44144;BME280;68165;51.920;4.492;2023-04-28T00:41:56;67136.88;;;11.55;57.69
44144;BME280;68165;51.920;4.492;2023-04-28T00:44:22;67152.72;;;11.65;57.33
44144;BME280;68165;51.920;4.492;2023-04-28T00:46:47;67136.88;;;11.55;57.61
44144;BME280;68165;51.920;4.492;2023-04-28T00:49:14;67171.16;;;11.81;57.32
44144;BME280;68165;51.920;4.492;2023-04-28T00:51:40;67181.78;;;11.91;56.76
44144;BME280;68165;51.920;4.492;2023-04-28T00:54:06;67190.53;;;11.97;56.39
44144;BME280;68165;51.920;4.492;2023-04-28T00:56:32;67193.09;;;12.04;56.50
44144;BME280;68165;51.920;4.492;2023-04-28T00:58:58;67194.94;;;12.08;55.74
44144;BME280;68165;51.920;4.492;2023-04-28T01:01:24;67208.59;;;12.15;55.99
44144;BME280;68165;51.920;4.492;2023-04-28T01:03:49;67205.00;;;12.17;55.60
44144;BME280;68165;51.920;4.492;2023-04-28T01:06:15;67208.59;;;12.15;55.85
44144;BME280;68165;51.920;4.492;2023-04-28T01:08:41;67206.13;;;12.18;55.83
44144;BME280;68165;51.920;4.492;2023-04-28T01:11:08;67206.50;;;12.16;55.93
44144;BME280;68165;51.920;4.492;2023-04-28T01:13:38;67200.53;;;12.13;55.35
44144;BME280;68165;51.920;4.492;2023-04-28T01:16:03;67210.25;;;12.17;55.38
44144;BME280;68165;51.920;4.492;2023-04-28T01:18:30;67202.78;;;12.15;55.53
44144;BME280;68165;51.920;4.492;2023-04-28T01:20:56;67211.94;;;12.18;55.19
44144;BME280;68165;51.920;4.492;2023-04-28T01:23:21;67205.97;;;12.15;55.44
44144;BME280;68165;51.920;4.492;2023-04-28T01:25:46;67210.25;;;12.17;55.30
44144;BME280;68165;51.920;4.492;2023-04-28T01:28:12;67216.56;;;12.25;55.21
44144;BME280;68165;51.920;4.492;2023-04-28T01:30:37;67217.28;;;12.28;55.34
44144;BME280;68165;51.920;4.492;2023-04-28T01:33:04;67220.88;;;12.26;54.97
44144;BME280;68165;51.920;4.492;2023-04-28T01:35:29;67219.19;;;12.25;55.24
44144;BME280;68165;51.920;4.492;2023-04-28T01:37:55;67210.56;;;12.22;54.96
44144;BME280;68165;51.920;4.492;2023-04-28T01:40:20;67211.69;;;12.23;55.32
44144;BME280;68165;51.920;4.492;2023-04-28T01:42:46;67204.28;;;12.14;55.73
44144;BME280;68165;51.920;4.492;2023-04-28T01:45:11;67205.41;;;12.15;56.03
44144;BME280;68165;51.920;4.492;2023-04-28T01:47:37;67201.09;;;12.13;56.04
44144;BME280;68165;51.920;4.492;2023-04-28T01:50:03;67203.53;;;12.11;56.49
44144;BME280;68165;51.920;4.492;2023-04-28T01:52:28;67204.66;;;12.12;56.70
44144;BME280;68165;51.920;4.492;2023-04-28T01:54:53;67194.22;;;12.05;57.11
44144;BME280;68165;51.920;4.492;2023-04-28T01:57:19;67192.16;;;12.05;57.33
44144;BME280;68165;51.920;4.492;2023-04-28T01:59:45;67196.84;;;12.05;57.34
44144;BME280;68165;51.920;4.492;2023-04-28T02:02:10;67196.84;;;12.05;57.33
44144;BME280;68165;51.920;4.492;2023-04-28T02:04:39;67189.59;;;11.98;57.05
44144;BME280;68165;51.920;4.492;2023-04-28T02:07:05;67193.09;;;12.04;56.98
44144;BME280;68165;51.920;4.492;2023-04-28T02:09:30;67193.50;;;12.02;57.33
44144;BME280;68165;51.920;4.492;2023-04-28T02:11:56;67190.88;;;12.02;57.14
44144;BME280;68165;51.920;4.492;2023-04-28T02:14:22;67189.75;;;12.01;57.35
44144;BME280;68165;51.920;4.492;2023-04-28T02:16:47;67190.16;;;11.99;57.65
44144;BME280;68165;51.920;4.492;2023-04-28T02:19:14;67188.63;;;12.00;57.49
44144;BME280;68165;51.920;4.492;2023-04-28T02:21:41;67190.16;;;11.99;57.45
44144;BME280;68165;51.920;4.492;2023-04-28T02:24:07;67178.03;;;11.90;57.48
44144;BME280;68165;51.920;4.492;2023-04-28T02:26:33;67183.44;;;11.93;57.88
44144;BME280;68165;51.920;4.492;2023-04-28T02:28:59;67173.00;;;11.85;57.87
44144;BME280;68165;51.920;4.492;2023-04-28T02:31:24;67178.41;;;11.88;57.90
44144;BME280;68165;51.920;4.492;2023-04-28T02:33:49;67165.34;;;11.81;57.88
44144;BME280;68165;51.920;4.492;2023-04-28T02:36:15;67176.91;;;11.89;58.00
44144;BME280;68165;51.920;4.492;2023-04-28T02:38:40;67170.78;;;11.83;58.32
44144;BME280;68165;51.920;4.492;2023-04-28T02:41:06;67173.00;;;11.85;58.58
44144;BME280;68165;51.920;4.492;2023-04-28T02:43:33;67171.16;;;11.81;58.50
44144;BME280;68165;51.920;4.492;2023-04-28T02:45:59;67188.31;;;11.95;58.49
44144;BME280;68165;51.920;4.492;2023-04-28T02:48:29;67181.94;;;11.94;58.74
44144;BME280;68165;51.920;4.492;2023-04-28T02:50:55;67178.59;;;11.91;58.65
44144;BME280;68165;51.920;4.492;2023-04-28T02:53:21;67188.88;;;11.95;59.03
44144;BME280;68165;51.920;4.492;2023-04-28T02:55:47;67184.19;;;11.96;58.71
44144;BME280;68165;51.920;4.492;2023-04-28T02:58:12;67187.91;;;11.97;59.08
44144;BME280;68165;51.920;4.492;2023-04-28T03:00:38;67188.47;;;11.97;59.54
44144;BME280;68165;51.920;4.492;2023-04-28T03:03:04;67183.63;;;11.95;59.37
44144;BME280;68165;51.920;4.492;2023-04-28T03:05:29;67183.78;;;11.98;59.23
44144;BME280;68165;51.920;4.492;2023-04-28T03:07:55;67186.81;;;11.96;59.70
44144;BME280;68165;51.920;4.492;2023-04-28T03:10:20;67181.56;;;11.96;59.21
44144;BME280;68165;51.920;4.492;2023-04-28T03:12:47;67190.16;;;11.99;59.30
44144;BME280;68165;51.920;4.492;2023-04-28T03:15:12;67181.94;;;11.94;59.15
44144;BME280;68165;51.920;4.492;2023-04-28T03:17:38;67176.75;;;11.86;59.86
44144;BME280;68165;51.920;4.492;2023-04-28T03:20:07;67173.72;;;11.89;59.98
44144;BME280;68165;51.920;4.492;2023-04-28T03:22:33;67167.41;;;11.80;60.04
44144;BME280;68165;51.920;4.492;2023-04-28T03:24:58;67170.03;;;11.80;59.99
44144;BME280;68165;51.920;4.492;2023-04-28T03:27:24;67173.22;;;11.81;60.31
44144;BME280;68165;51.920;4.492;2023-04-28T03:29:49;67167.41;;;11.80;60.90
44144;BME280;68165;51.920;4.492;2023-04-28T03:32:15;67171.91;;;11.84;60.60
44144;BME280;68165;51.920;4.492;2023-04-28T03:34:40;67168.16;;;11.83;60.34
44144;BME280;68165;51.920;4.492;2023-04-28T03:37:05;67164.63;;;11.78;60.93
44144;BME280;68165;51.920;4.492;2023-04-28T03:39:31;67150.25;;;11.67;61.53
44144;BME280;68165;51.920;4.492;2023-04-28T03:41:56;67166.47;;;11.82;61.39
44144;BME280;68165;51.920;4.492;2023-04-28T03:44:22;67168.94;;;11.79;61.38
44144;BME280;68165;51.920;4.492;2023-04-28T03:46:48;67172.84;;;11.83;61.27
44144;BME280;68165;51.920;4.492;2023-04-28T03:49:13;67165.91;;;11.81;61.49
44144;BME280;68165;51.920;4.492;2023-04-28T03:51:39;67166.69;;;11.77;61.87
44144;BME280;68165;51.920;4.492;2023-04-28T03:54:06;67174.53;;;11.84;61.79
44144;BME280;68165;51.920;4.492;2023-04-28T03:56:32;67171.16;;;11.81;62.00
44144;BME280;68165;51.920;4.492;2023-04-28T03:58:58;67167.41;;;11.80;62.35
44144;BME280;68165;51.920;4.492;2023-04-28T04:01:23;67169.25;;;11.84;62.32
44144;BME280;68165;51.920;4.492;2023-04-28T04:03:48;67170.22;;;11.83;62.45
44144;BME280;68165;51.920;4.492;2023-04-28T04:06:14;67157.00;;;11.73;62.67
44144;BME280;68165;51.920;4.492;2023-04-28T04:08:40;67163.50;;;11.77;63.16
44144;BME280;68165;51.920;4.492;2023-04-28T04:11:05;67163.50;;;11.77;63.50
44144;BME280;68165;51.920;4.492;2023-04-28T04:13:31;67159.63;;;11.73;63.94
44144;BME280;68165;51.920;4.492;2023-04-28T04:15:56;67146.91;;;11.64;64.47
44144;BME280;68165;51.920;4.492;2023-04-28T04:18:22;67157.34;;;11.71;64.60
44144;BME280;68165;51.920;4.492;2023-04-28T04:20:47;67170.03;;;11.80;64.92
44144;BME280;68165;51.920;4.492;2023-04-28T04:23:14;67162.94;;;11.76;64.92
44144;BME280;68165;51.920;4.492;2023-04-28T04:25:39;67168.38;;;11.79;65.74
44144;BME280;68165;51.920;4.492;2023-04-28T04:28:05;67175.22;;;11.88;65.56
44144;BME280;68165;51.920;4.492;2023-04-28T04:30:30;67173.00;;;11.85;66.23
44144;BME280;68165;51.920;4.492;2023-04-28T04:32:56;67164.06;;;11.77;67.64
44144;BME280;68165;51.920;4.492;2023-04-28T04:35:21;67158.66;;;11.75;68.03
44144;BME280;68165;51.920;4.492;2023-04-28T04:37:47;67168.38;;;11.79;68.09
44144;BME280;68165;51.920;4.492;2023-04-28T04:40:12;67154.16;;;11.71;68.88
44144;BME280;68165;51.920;4.492;2023-04-28T04:42:39;67148.25;;;11.61;69.47
44144;BME280;68165;51.920;4.492;2023-04-28T04:45:05;67127.03;;;11.41;71.41
44144;BME280;68165;51.920;4.492;2023-04-28T04:47:30;67076.41;;;10.98;74.64
44144;BME280;68165;51.920;4.492;2023-04-28T04:49:56;67049.47;;;10.71;76.70
44144;BME280;68165;51.920;4.492;2023-04-28T04:52:21;67014.31;;;10.39;80.58
44144;BME280;68165;51.920;4.492;2023-04-28T04:54:47;66995.91;;;10.22;83.42
44144;BME280;68165;51.920;4.492;2023-04-28T04:57:14;66977.31;;;10.03;86.13
44144;BME280;68165;51.920;4.492;2023-04-28T04:59:39;66967.63;;;9.99;87.84
44144;BME280;68165;51.920;4.492;2023-04-28T05:02:05;66964.28;;;9.96;89.64
44144;BME280;68165;51.920;4.492;2023-04-28T05:04:30;66962.06;;;9.94;90.98
44144;BME280;68165;51.920;4.492;2023-04-28T05:06:55;66957.22;;;9.92;92.02
44144;BME280;68165;51.920;4.492;2023-04-28T05:09:21;66979.16;;;10.07;92.96
44144;BME280;68165;51.920;4.492;2023-04-28T05:11:47;66995.69;;;10.27;92.84
44144;BME280;68165;51.920;4.492;2023-04-28T05:14:13;67019.34;;;10.44;92.34
44144;BME280;68165;51.920;4.492;2023-04-28T05:16:38;67037.91;;;10.63;91.69
44144;BME280;68165;51.920;4.492;2023-04-28T05:19:04;67047.97;;;10.72;91.69
44144;BME280;68165;51.920;4.492;2023-04-28T05:21:29;67056.31;;;10.80;91.16
44144;BME280;68165;51.920;4.492;2023-04-28T05:23:55;67067.66;;;10.92;90.80
44144;BME280;68165;51.920;4.492;2023-04-28T05:26:22;67071.00;;;10.95;90.35
44144;BME280;68165;51.920;4.492;2023-04-28T05:28:47;67073.06;;;10.95;89.66
44144;BME280;68165;51.920;4.492;2023-04-28T05:31:12;67080.16;;;10.99;89.87
44144;BME280;68165;51.920;4.492;2023-04-28T05:33:38;67055.38;;;10.81;90.64
44144;BME280;68165;51.920;4.492;2023-04-28T05:36:03;67030.28;;;10.58;91.67
44144;BME280;68165;51.920;4.492;2023-04-28T05:38:29;67006.31;;;10.37;92.77
44144;BME280;68165;51.920;4.492;2023-04-28T05:40:56;67004.28;;;10.30;94.13
44144;BME280;68165;51.920;4.492;2023-04-28T05:43:21;66994.03;;;10.26;95.65
44144;BME280;68165;51.920;4.492;2023-04-28T05:45:46;66984.56;;;10.17;97.30
44144;BME280;68165;51.920;4.492;2023-04-28T05:48:12;66973.22;;;10.04;97.68
44144;BME280;68165;51.920;4.492;2023-04-28T05:50:37;66989.94;;;10.19;98.21
44144;BME280;68165;51.920;4.492;2023-04-28T05:53:03;66993.69;;;10.20;98.98
44144;BME280;68165;51.920;4.492;2023-04-28T05:55:29;66989.56;;;10.21;99.01
44144;BME280;68165;51.920;4.492;2023-04-28T05:57:54;66993.47;;;10.25;99.54
44144;BME280;68165;51.920;4.492;2023-04-28T06:00:20;66986.22;;;10.18;99.88
44144;BME280;68165;51.920;4.492;2023-04-28T06:02:46;67018.22;;;10.43;100.00
44144;BME280;68165;51.920;4.492;2023-04-28T06:05:11;67008.53;;;10.39;100.00
44144;BME280;68165;51.920;4.492;2023-04-28T06:07:37;66998.88;;;10.28;100.00
44144;BME280;68165;51.920;4.492;2023-04-28T06:10:02;67024.53;;;10.51;100.00
44144;BME280;68165;51.920;4.492;2023-04-28T06:12:28;67014.50;;;10.42;100.00
44144;BME280;68165;51.920;4.492;2023-04-28T06:14:54;67030.09;;;10.56;100.00
44144;BME280;68165;51.920;4.492;2023-04-28T06:17:24;67033.06;;;10.61;100.00
44144;BME280;68165;51.920;4.492;2023-04-28T06:19:55;67028.03;;;10.56;100.00
44144;BME280;68165;51.920;4.492;2023-04-28T06:22:21;67037.19;;;10.60;100.00
44144;BME280;68165;51.920;4.492;2023-04-28T06:24:46;67038.66;;;10.66;100.00
44144;BME280;68165;51.920;4.492;2023-04-28T06:27:11;67044.78;;;10.72;100.00
44144;BME280;68165;51.920;4.492;2023-04-28T06:29:37;67059.69;;;10.83;100.00
44144;BME280;68165;51.920;4.492;2023-04-28T06:32:02;67073.06;;;10.95;100.00
44144;BME280;68165;51.920;4.492;2023-04-28T06:34:29;67068.59;;;10.91;100.00
44144;BME280;68165;51.920;4.492;2023-04-28T06:36:57;67064.53;;;10.85;100.00
44144;BME280;68165;51.920;4.492;2023-04-28T06:39:23;67053.13;;;10.79;100.00
44144;BME280;68165;51.920;4.492;2023-04-28T06:41:48;67062.88;;;10.83;100.00
44144;BME280;68165;51.920;4.492;2023-04-28T06:44:13;67047.75;;;10.77;100.00
44144;BME280;68165;51.920;4.492;2023-04-28T06:46:39;67066.19;;;10.86;100.00
44144;BME280;68165;51.920;4.492;2023-04-28T06:49:04;67061.91;;;10.85;100.00
44144;BME280;68165;51.920;4.492;2023-04-28T06:51:30;67065.41;;;10.90;100.00
44144;BME280;68165;51.920;4.492;2023-04-28T06:54:00;67063.19;;;10.88;100.00
44144;BME280;68165;51.920;4.492;2023-04-28T06:56:25;67065.25;;;10.88;100.00
44144;BME280;68165;51.920;4.492;2023-04-28T06:58:53;67059.69;;;10.83;100.00
44144;BME280;68165;51.920;4.492;2023-04-28T07:01:19;67067.88;;;10.88;100.00
44144;BME280;68165;51.920;4.492;2023-04-28T07:03:44;67065.81;;;10.88;100.00
44144;BME280;68165;51.920;4.492;2023-04-28T07:06:09;67070.28;;;10.92;100.00
44144;BME280;68165;51.920;4.492;2023-04-28T07:08:35;67075.84;;;10.97;100.00
44144;BME280;68165;51.920;4.492;2023-04-28T07:11:01;67079.22;;;11.00;100.00
44144;BME280;68165;51.920;4.492;2023-04-28T07:13:30;67092.59;;;11.13;100.00
44144;BME280;68165;51.920;4.492;2023-04-28T07:15:55;67081.44;;;11.02;100.00
44144;BME280;68165;51.920;4.492;2023-04-28T07:18:24;67106.38;;;11.23;100.00
44144;BME280;68165;51.920;4.492;2023-04-28T07:20:49;67088.31;;;11.11;100.00
44144;BME280;68165;51.920;4.492;2023-04-28T07:23:15;67114.59;;;11.28;100.00
44144;BME280;68165;51.920;4.492;2023-04-28T07:25:41;67114.34;;;11.32;100.00
44144;BME280;68165;51.920;4.492;2023-04-28T07:28:07;67129.44;;;11.46;100.00
44144;BME280;68165;51.920;4.492;2023-04-28T07:30:33;67136.31;;;11.55;100.00
44144;BME280;68165;51.920;4.492;2023-04-28T07:32:59;67144.13;;;11.62;100.00
44144;BME280;68165;51.920;4.492;2023-04-28T07:35:24;67154.72;;;11.71;100.00
44144;BME280;68165;51.920;4.492;2023-04-28T07:37:50;67152.47;;;11.69;100.00
44144;BME280;68165;51.920;4.492;2023-04-28T07:40:16;67145.63;;;11.61;100.00
44144;BME280;68165;51.920;4.492;2023-04-28T07:42:42;67176.91;;;11.89;100.00
44144;BME280;68165;51.920;4.492;2023-04-28T07:45:07;67174.84;;;11.90;100.00
44144;BME280;68165;51.920;4.492;2023-04-28T07:47:33;67192.00;;;12.03;100.00
44144;BME280;68165;51.920;4.492;2023-04-28T07:49:58;67179.72;;;11.92;100.00
44144;BME280;68165;51.920;4.492;2023-04-28T07:52:27;67184.19;;;11.96;100.00
44144;BME280;68165;51.920;4.492;2023-04-28T07:54:52;67183.84;;;11.91;100.00
44144;BME280;68165;51.920;4.492;2023-04-28T07:57:18;67198.69;;;12.09;100.00
44144;BME280;68165;51.920;4.492;2023-04-28T07:59:43;67217.13;;;12.25;100.00
44144;BME280;68165;51.920;4.492;2023-04-28T08:02:08;67227.34;;;12.37;100.00
44144;BME280;68165;51.920;4.492;2023-04-28T08:04:37;67237.63;;;12.42;100.00
44144;BME280;68165;51.920;4.492;2023-04-28T08:07:02;67231.47;;;12.36;100.00
44144;BME280;68165;51.920;4.492;2023-04-28T08:09:28;67228.47;;;12.38;100.00
44144;BME280;68165;51.920;4.492;2023-04-28T08:11:53;67240.03;;;12.46;100.00
44144;BME280;68165;51.920;4.492;2023-04-28T08:14:19;67251.22;;;12.56;100.00
44144;BME280;68165;51.920;4.492;2023-04-28T08:16:46;67262.56;;;12.69;100.00
44144;BME280;68165;51.920;4.492;2023-04-28T08:19:12;67260.31;;;12.67;100.00
44144;BME280;68165;51.920;4.492;2023-04-28T08:21:38;67276.13;;;12.84;100.00
44144;BME280;68165;51.920;4.492;2023-04-28T08:24:03;67295.75;;;12.94;100.00
44144;BME280;68165;51.920;4.492;2023-04-28T08:26:28;67303.19;;;13.03;100.00
44144;BME280;68165;51.920;4.492;2023-04-28T08:28:54;67309.34;;;13.09;100.00
44144;BME280;68165;51.920;4.492;2023-04-28T08:31:19;67319.56;;;13.21;100.00
44144;BME280;68165;51.920;4.492;2023-04-28T08:33:45;67333.56;;;13.33;100.00
44144;BME280;68165;51.920;4.492;2023-04-28T08:36:12;67344.16;;;13.43;100.00
44144;BME280;68165;51.920;4.492;2023-04-28T08:38:39;67351.44;;;13.49;100.00
44144;BME280;68165;51.920;4.492;2023-04-28T08:41:05;67364.88;;;13.62;100.00
44144;BME280;68165;51.920;4.492;2023-04-28T08:43:34;67387.25;;;13.82;100.00
44144;BME280;68165;51.920;4.492;2023-04-28T08:46:05;67414.47;;;14.04;100.00
44144;BME280;68165;51.920;4.492;2023-04-28T08:48:39;67445.25;;;14.32;100.00
44144;BME280;68165;51.920;4.492;2023-04-28T08:51:06;67454.38;;;14.43;100.00
44144;BME280;68165;51.920;4.492;2023-04-28T08:53:36;67467.25;;;14.54;100.00
44144;BME280;68165;51.920;4.492;2023-04-28T08:56:04;67470.06;;;14.57;100.00
44144;BME280;68165;51.920;4.492;2023-04-28T08:58:30;67487.63;;;14.68;100.00
44144;BME280;68165;51.920;4.492;2023-04-28T09:00:56;67488.13;;;14.76;100.00
44144;BME280;68165;51.920;4.492;2023-04-28T09:03:21;67486.44;;;14.74;100.00
44144;BME280;68165;51.920;4.492;2023-04-28T09:05:47;67495.25;;;14.80;100.00
44144;BME280;68165;51.920;4.492;2023-04-28T09:08:13;67501.97;;;14.86;100.00
44144;BME280;68165;51.920;4.492;2023-04-28T09:10:38;67520.59;;;15.05;100.00
44144;BME280;68165;51.920;4.492;2023-04-28T09:13:04;67540.44;;;15.18;100.00
44144;BME280;68165;51.920;4.492;2023-04-28T09:15:37;67549.69;;;15.31;100.00
44144;BME280;68165;51.920;4.492;2023-04-28T09:18:05;67560.75;;;15.39;100.00
44144;BME280;68165;51.920;4.492;2023-04-28T09:20:33;67574.59;;;15.49;100.00
44144;BME280;68165;51.920;4.492;2023-04-28T09:23:18;67585.97;;;15.62;100.00
44144;BME280;68165;51.920;4.492;2023-04-28T09:26:04;67590.84;;;15.64;100.00
44144;BME280;68165;51.920;4.492;2023-04-28T09:28:31;67598.94;;;15.66;100.00
44144;BME280;68165;51.920;4.492;2023-04-28T09:30:57;67599.66;;;15.69;100.00
44144;BME280;68165;51.920;4.492;2023-04-28T09:33:23;67618.63;;;15.93;100.00
44144;BME280;68165;51.920;4.492;2023-04-28T09:35:48;67626.31;;;15.98;100.00
44144;BME280;68165;51.920;4.492;2023-04-28T09:38:15;67630.81;;;16.02;100.00
44144;BME280;68165;51.920;4.492;2023-04-28T09:43:29;67641.84;;;16.10;100.00
44144;BME280;68165;51.920;4.492;2023-04-28T09:45:59;67639.19;;;16.10;100.00
44144;BME280;68165;51.920;4.492;2023-04-28T09:48:33;67643.69;;;16.14;100.00
44144;BME280;68165;51.920;4.492;2023-04-28T09:51:01;67648.16;;;16.18;100.00
44144;BME280;68165;51.920;4.492;2023-04-28T09:53:29;67661.31;;;16.25;100.00
44144;BME280;68165;51.920;4.492;2023-04-28T09:55:56;67662.75;;;16.31;100.00
44144;BME280;68165;51.920;4.492;2023-04-28T09:58:23;67684.59;;;16.51;100.00
44144;BME280;68165;51.920;4.492;2023-04-28T10:00:53;67680.50;;;16.45;100.00
44144;BME280;68165;51.920;4.492;2023-04-28T10:03:23;67656.03;;;16.25;100.00
44144;BME280;68165;51.920;4.492;2023-04-28T10:05:50;67644.25;;;16.14;100.00
44144;BME280;68165;51.920;4.492;2023-04-28T10:08:20;67629.13;;;16.01;100.00
44144;BME280;68165;51.920;4.492;2023-04-28T10:10:50;67617.91;;;15.90;100.00
44144;BME280;68165;51.920;4.492;2023-04-28T10:13:19;67613.84;;;15.84;100.00
44144;BME280;68165;51.920;4.492;2023-04-28T10:15:45;67595.91;;;15.68;100.00
44144;BME280;68165;51.920;4.492;2023-04-28T10:18:13;67579.25;;;15.56;100.00
44144;BME280;68165;51.920;4.492;2023-04-28T10:20:45;67560.75;;;15.39;100.00
44144;BME280;68165;51.920;4.492;2023-04-28T10:26:02;67553.47;;;15.32;100.00
44144;BME280;68165;51.920;4.492;2023-04-28T10:28:28;67532.91;;;15.16;100.00
44144;BME280;68165;51.920;4.492;2023-04-28T10:31:14;67543.41;;;15.23;100.00
44144;BME280;68165;51.920;4.492;2023-04-28T10:33:40;67528.66;;;15.07;100.00
44144;BME280;68165;51.920;4.492;2023-04-28T10:36:06;67505.88;;;14.89;100.00
44144;BME280;68165;51.920;4.492;2023-04-28T10:38:32;67506.66;;;14.85;100.00
44144;BME280;68165;51.920;4.492;2023-04-28T10:40:59;67509.63;;;14.90;100.00
44144;BME280;68165;51.920;4.492;2023-04-28T10:48:19;67541.72;;;15.22;100.00
44144;BME280;68165;51.920;4.492;2023-04-28T10:56:23;67544.53;;;15.24;100.00
44144;BME280;68165;51.920;4.492;2023-04-28T10:58:53;67550.34;;;15.25;100.00
44144;BME280;68165;51.920;4.492;2023-04-28T11:01:29;67553.72;;;15.28;100.00
44144;BME280;68165;51.920;4.492;2023-04-28T11:04:05;67548.81;;;15.26;100.00
44144;BME280;68165;51.920;4.492;2023-04-28T11:07:10;67557.41;;;15.36;100.00
44144;BME280;68165;51.920;4.492;2023-04-28T11:09:46;67538.91;;;15.19;100.00
44144;BME280;68165;51.920;4.492;2023-04-28T11:12:13;67541.16;;;15.21;100.00
44144;BME280;68165;51.920;4.492;2023-04-28T11:14:40;67522.13;;;15.04;100.00
44144;BME280;68165;51.920;4.492;2023-04-28T11:17:07;67540.03;;;15.20;100.00
44144;BME280;68165;51.920;4.492;2023-04-28T11:19:34;67555.97;;;15.30;100.00
44144;BME280;68165;51.920;4.492;2023-04-28T11:22:02;67548.59;;;15.30;100.00
44144;BME280;68165;51.920;4.492;2023-04-28T11:24:29;67551.63;;;15.28;100.00
44144;BME280;68165;51.920;4.492;2023-04-28T11:26:59;67562.44;;;15.40;100.00
44144;BME280;68165;51.920;4.492;2023-04-28T11:29:35;67558.53;;;15.37;100.00
44144;BME280;68165;51.920;4.492;2023-04-28T11:32:02;67554.97;;;15.31;100.00
44144;BME280;68165;51.920;4.492;2023-04-28T11:34:28;67546.19;;;15.26;100.00
44144;BME280;68165;51.920;4.492;2023-04-28T11:36:53;67552.03;;;15.26;100.00
44144;BME280;68165;51.920;4.492;2023-04-28T11:39:25;67532.59;;;15.11;100.00
44144;BME280;68165;51.920;4.492;2023-04-28T11:41:53;67540.59;;;15.21;100.00
44144;BME280;68165;51.920;4.492;2023-04-28T11:44:20;67539.16;;;15.15;100.00
44144;BME280;68165;51.920;4.492;2023-04-28T11:46:50;67549.56;;;15.29;100.00
44144;BME280;68165;51.920;4.492;2023-04-28T11:49:20;67551.81;;;15.31;100.00
44144;BME280;68165;51.920;4.492;2023-04-28T11:51:47;67561.69;;;15.37;100.00
44144;BME280;68165;51.920;4.492;2023-04-28T11:54:26;67570.53;;;15.43;100.00
44144;BME280;68165;51.920;4.492;2023-04-28T11:56:53;67563.94;;;15.39;100.00
44144;BME280;68165;51.920;4.492;2023-04-28T11:59:24;67574.75;;;15.51;100.00
44144;BME280;68165;51.920;4.492;2023-04-28T12:01:51;67568.59;;;15.46;100.00
44144;BME280;68165;51.920;4.492;2023-04-28T12:04:38;67587.66;;;15.63;100.00
44144;BME280;68165;51.920;4.492;2023-04-28T12:07:13;67577.16;;;15.56;100.00
44144;BME280;68165;51.920;4.492;2023-04-28T12:12:16;67602.22;;;15.76;100.00
44144;BME280;68165;51.920;4.492;2023-04-28T12:17:37;67625.75;;;15.98;100.00
44144;BME280;68165;51.920;4.492;2023-04-28T12:20:08;67619.44;;;15.89;100.00
44144;BME280;68165;51.920;4.492;2023-04-28T12:25:12;67601.41;;;15.80;100.00
44144;BME280;68165;51.920;4.492;2023-04-28T12:27:38;67602.78;;;15.77;100.00
44144;BME280;68165;51.920;4.492;2023-04-28T12:32:46;67615.09;;;15.88;100.00
44144;BME280;68165;51.920;4.492;2023-04-28T12:35:12;67618.88;;;15.89;100.00
44144;BME280;68165;51.920;4.492;2023-04-28T12:37:37;67616.78;;;15.89;100.00
44144;BME280;68165;51.920;4.492;2023-04-28T12:40:05;67626.72;;;15.96;100.00
44144;BME280;68165;51.920;4.492;2023-04-28T12:42:31;67618.47;;;15.91;100.00
44144;BME280;68165;51.920;4.492;2023-04-28T12:44:56;67609.34;;;15.80;100.00
44144;BME280;68165;51.920;4.492;2023-04-28T12:47:21;67608.13;;;15.86;100.00
44144;BME280;68165;51.920;4.492;2023-04-28T12:49:47;67612.16;;;15.83;100.00
44144;BME280;68165;51.920;4.492;2023-04-28T12:52:15;67620.00;;;15.90;100.00
44144;BME280;68165;51.920;4.492;2023-04-28T12:54:40;67607.13;;;15.78;100.00
44144;BME280;68165;51.920;4.492;2023-04-28T12:57:14;67617.50;;;15.92;100.00
44144;BME280;68165;51.920;4.492;2023-04-28T12:59:39;67609.34;;;15.80;100.00
44144;BME280;68165;51.920;4.492;2023-04-28T13:02:08;67601.09;;;15.75;100.00
44144;BME280;68165;51.920;4.492;2023-04-28T13:04:34;67610.22;;;15.86;100.00
44144;BME280;68165;51.920;4.492;2023-04-28T13:07:00;67604.47;;;15.78;100.00
44144;BME280;68165;51.920;4.492;2023-04-28T13:09:26;67618.06;;;15.93;100.00
44144;BME280;68165;51.920;4.492;2023-04-28T13:11:51;67605.34;;;15.84;100.00
44144;BME280;68165;51.920;4.492;2023-04-28T13:14:18;67607.50;;;15.76;100.00
44144;BME280;68165;51.920;4.492;2023-04-28T13:16:44;67604.31;;;15.76;100.00
44144;BME280;68165;51.920;4.492;2023-04-28T13:19:09;67597.75;;;15.72;100.00